createdAt,value
2017-09-23T00:01:01.841Z,47.50
2017-09-23T00:03:28.738Z,43.60
2017-09-23T00:05:55.817Z,47.50
2017-09-23T00:08:22.718Z,45.20
2017-09-23T00:10:49.588Z,45.20
2017-09-23T00:13:16.735Z,47.43
2017-09-23T00:15:43.649Z,48.37
2017-09-23T00:18:10.553Z,49.40
2017-09-23T00:20:38.309Z,48.57
2017-09-23T00:23:05.305Z,51.00
2017-09-23T00:25:32.248Z,50.40
2017-09-23T00:27:59.152Z,42.93
2017-09-23T00:30:26.038Z,47.93
2017-09-23T00:32:52.978Z,46.80
2017-09-23T00:35:19.931Z,46.60
2017-09-23T00:37:46.860Z,40.87
2017-09-23T00:40:13.761Z,44.43
2017-09-23T00:42:40.728Z,46.80
2017-09-23T00:45:07.632Z,47.90
2017-09-23T00:47:34.553Z,46.37
2017-09-23T00:50:01.497Z,50.67
2017-09-23T00:52:29.201Z,51.00
2017-09-23T00:54:56.322Z,49.27
2017-09-23T00:57:23.343Z,47.20
2017-09-23T00:59:50.297Z,47.27
2017-09-23T01:02:17.216Z,47.87
2017-09-23T01:04:44.118Z,47.33
2017-09-23T01:07:11.010Z,43.70
2017-09-23T01:09:37.962Z,45.00
2017-09-23T01:12:04.894Z,42.90
2017-09-23T01:14:31.782Z,40.10
2017-09-23T01:16:58.682Z,44.13
2017-09-23T01:19:25.649Z,44.80
2017-09-23T01:21:52.671Z,42.63
2017-09-23T01:24:19.657Z,45.67
2017-09-23T01:26:46.578Z,43.10
2017-09-23T01:29:13.583Z,45.57
2017-09-23T01:31:40.483Z,50.43
2017-09-23T01:34:08.105Z,47.50
2017-09-23T01:36:34.995Z,46.87
2017-09-23T01:39:01.864Z,45.70
2017-09-23T01:41:28.760Z,42.20
2017-09-23T01:43:55.673Z,41.03
2017-09-23T01:46:22.609Z,42.30
2017-09-23T01:48:49.475Z,47.60
2017-09-23T01:51:16.342Z,49.00
2017-09-23T01:53:43.258Z,43.50
2017-09-23T01:56:11.065Z,44.80
2017-09-23T01:58:37.924Z,45.90
2017-09-23T02:01:04.818Z,46.50
2017-09-23T02:03:31.677Z,46.30
2017-09-23T02:05:58.597Z,47.50
2017-09-23T02:08:26.206Z,46.87
2017-09-23T02:10:53.092Z,44.80
2017-09-23T02:13:19.977Z,49.17
2017-09-23T02:15:46.865Z,40.77
2017-09-23T02:18:14.435Z,43.17
2017-09-23T02:20:42.097Z,50.37
2017-09-23T02:23:08.963Z,50.90
2017-09-23T02:25:35.803Z,54.50
2017-09-23T02:28:02.671Z,63.90
2017-09-23T02:30:29.548Z,83.37
2017-09-23T02:32:56.407Z,85.80
2017-09-23T02:35:23.276Z,87.00
2017-09-23T02:37:50.891Z,90.60
2017-09-23T02:40:17.763Z,96.30
2017-09-23T02:42:44.675Z,93.50
2017-09-23T02:45:11.569Z,98.70
2017-09-23T02:47:40.092Z,101.50
2017-09-23T02:50:06.997Z,97.47
2017-09-23T02:52:33.839Z,102.30
2017-09-23T02:55:00.806Z,97.87
2017-09-23T02:57:27.756Z,98.00
2017-09-23T02:59:54.673Z,99.87
2017-09-23T03:02:22.264Z,93.17
2017-09-23T03:04:49.177Z,93.57
2017-09-23T03:07:16.098Z,97.30
2017-09-23T03:09:42.959Z,97.30
2017-09-23T03:12:09.838Z,96.97
2017-09-23T03:14:36.690Z,90.87
2017-09-23T03:17:03.639Z,97.63
2017-09-23T03:19:30.612Z,97.10
2017-09-23T03:21:59.111Z,95.37
2017-09-23T03:24:26.003Z,95.50
2017-09-23T03:26:52.920Z,99.97
2017-09-23T03:29:19.779Z,98.47
2017-09-23T03:31:46.633Z,91.00
2017-09-23T03:34:14.250Z,93.33
2017-09-23T03:36:41.136Z,88.57
2017-09-23T03:39:08.128Z,89.97
2017-09-23T03:41:35.075Z,93.13
2017-09-23T03:44:01.943Z,97.40
2017-09-23T03:46:28.855Z,86.10
2017-09-23T03:48:56.063Z,84.03
2017-09-23T03:51:22.972Z,82.80
2017-09-23T03:53:49.858Z,84.47
2017-09-23T03:56:16.733Z,84.23
2017-09-23T03:58:43.616Z,80.77
2017-09-23T04:01:10.592Z,79.53
2017-09-23T04:03:37.514Z,82.90
2017-09-23T04:06:04.399Z,84.73
2017-09-23T04:08:31.555Z,87.27
2017-09-23T04:10:58.424Z,82.00
2017-09-23T04:13:25.322Z,79.70
2017-09-23T04:15:52.953Z,81.90
2017-09-23T04:18:19.831Z,84.07
2017-09-23T04:20:46.798Z,80.50
2017-09-23T04:23:13.828Z,81.93
2017-09-23T04:25:40.721Z,81.93
2017-09-23T04:28:07.595Z,87.17
2017-09-23T04:30:34.433Z,83.70
2017-09-23T04:33:01.303Z,83.13
2017-09-23T04:35:28.140Z,88.50
2017-09-23T04:37:55.043Z,83.73
2017-09-23T04:40:21.857Z,85.00
2017-09-23T04:42:48.654Z,87.83
2017-09-23T04:45:15.494Z,89.47
2017-09-23T04:47:42.346Z,85.27
2017-09-23T04:50:09.157Z,91.13
2017-09-23T04:52:36.765Z,90.10
2017-09-23T04:55:04.419Z,93.00
2017-09-23T04:57:32.021Z,88.67
2017-09-23T04:59:58.893Z,82.97
2017-09-23T05:02:25.762Z,87.10
2017-09-23T05:04:52.625Z,84.07
2017-09-23T05:07:19.533Z,82.57
2017-09-23T05:09:47.199Z,82.83
2017-09-23T05:12:14.036Z,84.83
2017-09-23T05:14:40.879Z,77.80
2017-09-23T05:17:07.722Z,79.33
2017-09-23T05:19:34.578Z,83.90
2017-09-23T05:22:02.146Z,82.10
2017-09-23T05:24:29.833Z,79.17
2017-09-23T05:26:57.393Z,81.70
2017-09-23T05:29:24.236Z,81.07
2017-09-23T05:31:51.098Z,79.93
2017-09-23T05:34:17.925Z,79.30
2017-09-23T05:36:44.776Z,82.63
2017-09-23T05:39:11.609Z,81.73
2017-09-23T05:41:39.215Z,83.13
2017-09-23T05:44:06.064Z,80.60
2017-09-23T05:46:32.955Z,76.63
2017-09-23T05:48:59.750Z,83.83
2017-09-23T05:51:27.181Z,81.53
2017-09-23T05:53:54.011Z,77.90
2017-09-23T05:56:20.835Z,72.10
2017-09-23T05:58:47.701Z,76.97
2017-09-23T06:01:14.589Z,72.23
2017-09-23T06:03:42.660Z,74.33
2017-09-23T06:06:09.528Z,75.80
2017-09-23T06:08:36.347Z,77.07
2017-09-23T06:11:03.163Z,72.13
2017-09-23T06:13:30.744Z,76.47
2017-09-23T06:15:58.288Z,79.43
2017-09-23T06:18:25.165Z,80.50
2017-09-23T06:20:52.003Z,80.53
2017-09-23T06:23:18.827Z,82.67
2017-09-23T06:25:45.639Z,85.77
2017-09-23T06:28:12.447Z,78.07
2017-09-23T06:30:39.340Z,82.27
2017-09-23T06:33:06.174Z,75.40
2017-09-23T06:35:33.008Z,80.87
2017-09-23T06:38:00.601Z,82.40
2017-09-23T06:40:27.437Z,75.13
2017-09-23T06:42:54.297Z,77.40
2017-09-23T06:45:21.151Z,82.37
2017-09-23T06:47:47.983Z,73.20
2017-09-23T06:50:14.838Z,77.93
2017-09-23T06:52:41.643Z,77.13
2017-09-23T06:55:08.471Z,78.77
2017-09-23T06:57:35.279Z,78.77
2017-09-23T07:00:02.169Z,71.73
2017-09-23T07:02:28.975Z,69.67
2017-09-23T07:04:55.776Z,69.40
2017-09-23T07:07:22.606Z,70.13
2017-09-23T07:09:49.449Z,70.07
2017-09-23T07:12:16.306Z,66.27
2017-09-23T07:14:43.112Z,65.60
2017-09-23T07:17:10.655Z,75.33
2017-09-23T07:19:37.522Z,72.77
2017-09-23T07:22:04.415Z,63.23
2017-09-23T07:24:31.332Z,59.63
2017-09-23T07:26:58.177Z,61.27
2017-09-23T07:29:25.004Z,62.00
2017-09-23T07:31:51.865Z,63.73
2017-09-23T07:34:18.687Z,62.73
2017-09-23T07:36:45.525Z,63.53
2017-09-23T07:39:12.393Z,64.70
2017-09-23T07:41:39.215Z,65.53
2017-09-23T07:44:06.003Z,61.00
2017-09-23T07:46:32.876Z,66.67
2017-09-23T07:48:59.754Z,62.00
2017-09-23T07:51:26.626Z,67.17
2017-09-23T07:53:53.523Z,61.63
2017-09-23T07:56:20.344Z,66.50
2017-09-23T07:58:47.203Z,62.93
2017-09-23T08:01:14.022Z,58.70
2017-09-23T08:03:40.849Z,59.30
2017-09-23T08:06:08.445Z,60.07
2017-09-23T08:08:35.340Z,59.73
2017-09-23T08:11:02.176Z,58.17
2017-09-23T08:13:29.078Z,55.97
2017-09-23T08:15:55.947Z,57.70
2017-09-23T08:18:22.811Z,55.63
2017-09-23T08:20:49.734Z,54.20
2017-09-23T08:23:16.600Z,50.30
2017-09-23T08:25:43.403Z,52.00
2017-09-23T08:28:10.268Z,48.80
2017-09-23T08:30:37.862Z,49.00
2017-09-23T08:33:05.429Z,52.30
2017-09-23T08:35:32.271Z,51.70
2017-09-23T08:37:59.216Z,49.90
2017-09-23T08:40:26.056Z,48.67
2017-09-23T08:42:52.911Z,47.93
2017-09-23T08:45:19.857Z,47.90
2017-09-23T08:47:46.773Z,46.43
2017-09-23T08:50:13.650Z,47.67
2017-09-23T08:52:40.565Z,48.13
2017-09-23T08:55:08.348Z,48.13
2017-09-23T08:57:35.191Z,49.83
2017-09-23T09:00:02.860Z,46.80
2017-09-23T09:02:30.397Z,48.13
2017-09-23T09:04:57.267Z,49.43
2017-09-23T09:07:24.106Z,49.30
2017-09-23T09:09:50.973Z,49.20
2017-09-23T09:12:17.922Z,49.13
2017-09-23T09:14:44.752Z,48.77
2017-09-23T09:17:11.833Z,49.17
2017-09-23T09:19:38.739Z,50.10
2017-09-23T09:22:05.652Z,51.37
2017-09-23T09:24:32.631Z,52.57
2017-09-23T09:26:59.436Z,54.00
2017-09-23T09:29:26.361Z,48.70
2017-09-23T09:31:53.241Z,50.60
2017-09-23T09:34:20.145Z,47.93
2017-09-23T09:36:47.783Z,48.27
2017-09-23T09:39:14.580Z,47.90
2017-09-23T09:41:42.221Z,46.57
2017-09-23T09:44:09.145Z,48.40
2017-09-23T09:46:35.977Z,47.13
2017-09-23T09:49:02.815Z,47.67
2017-09-23T09:51:29.687Z,47.80
2017-09-23T09:53:56.493Z,46.23
2017-09-23T09:56:23.330Z,47.23
2017-09-23T09:58:50.883Z,47.50
2017-09-23T10:01:17.730Z,46.27
2017-09-23T10:03:44.544Z,43.10
2017-09-23T10:06:11.405Z,43.90
2017-09-23T10:08:38.321Z,42.37
2017-09-23T10:11:05.730Z,42.50
2017-09-23T10:13:38.695Z,42.27
2017-09-23T10:16:05.571Z,42.30
2017-09-23T10:18:32.397Z,44.33
2017-09-23T10:20:59.245Z,40.30
2017-09-23T10:23:26.150Z,43.03
2017-09-23T10:25:53.000Z,41.80
2017-09-23T10:28:19.824Z,41.10
2017-09-23T10:30:46.650Z,41.03
2017-09-23T10:33:14.227Z,40.60
2017-09-23T10:35:41.801Z,41.67
2017-09-23T10:38:09.346Z,41.70
2017-09-23T10:40:36.192Z,40.40
2017-09-23T10:43:03.037Z,42.30
2017-09-23T10:45:29.934Z,40.37
2017-09-23T10:47:56.822Z,41.10
2017-09-23T10:50:23.663Z,42.13
2017-09-23T10:52:50.515Z,41.13
2017-09-23T10:55:17.336Z,41.30
2017-09-23T10:57:44.186Z,39.00
2017-09-23T11:00:11.804Z,42.40
2017-09-23T11:02:38.625Z,39.07
2017-09-23T11:05:06.499Z,41.17
2017-09-23T11:07:34.172Z,37.63
2017-09-23T11:10:01.756Z,39.20
2017-09-23T11:12:29.423Z,38.00
2017-09-23T11:14:56.673Z,36.60
2017-09-23T11:17:23.546Z,37.63
2017-09-23T11:19:50.375Z,37.47
2017-09-23T11:22:17.307Z,36.73
2017-09-23T11:24:44.177Z,36.77
2017-09-23T11:27:11.066Z,35.20
2017-09-23T11:29:37.900Z,36.70
2017-09-23T11:32:04.801Z,33.40
2017-09-23T11:37:37.223Z,34.53
2017-09-23T11:40:04.070Z,34.40
2017-09-23T11:42:30.910Z,34.77
2017-09-23T11:44:57.720Z,34.67
2017-09-23T11:47:24.529Z,33.10
2017-09-23T11:49:52.016Z,32.90
2017-09-23T11:52:19.479Z,31.67
2017-09-23T11:54:46.863Z,34.00
2017-09-23T11:57:14.265Z,34.13
2017-09-23T11:59:41.926Z,33.00
2017-09-23T12:02:09.357Z,31.80
2017-09-23T12:04:36.898Z,32.67
2017-09-23T12:07:05.040Z,30.90
2017-09-23T12:09:31.866Z,29.17
2017-09-23T12:11:59.449Z,31.37
2017-09-23T12:14:26.295Z,30.80
2017-09-23T12:16:53.154Z,30.30
2017-09-23T12:19:20.008Z,29.00
2017-09-23T12:21:46.849Z,32.90
2017-09-23T12:24:13.703Z,30.87
2017-09-23T12:26:40.566Z,30.30
2017-09-23T12:29:07.400Z,30.90
2017-09-23T12:31:34.240Z,30.73
2017-09-23T12:34:01.821Z,31.67
2017-09-23T12:36:29.415Z,29.13
2017-09-23T12:38:56.315Z,28.17
2017-09-23T12:41:23.180Z,28.50
2017-09-23T12:43:50.037Z,29.40
2017-09-23T12:46:16.878Z,28.60
2017-09-23T12:48:43.745Z,29.43
2017-09-23T12:51:10.657Z,30.30
2017-09-23T12:53:38.244Z,27.63
2017-09-23T12:56:05.822Z,30.10
2017-09-23T12:58:33.421Z,28.60
2017-09-23T13:01:00.284Z,28.57
2017-09-23T13:03:27.217Z,28.90
2017-09-23T13:05:54.080Z,29.77
2017-09-23T13:08:20.897Z,31.27
2017-09-23T13:10:47.870Z,30.10
2017-09-23T13:13:14.698Z,29.87
2017-09-23T13:15:41.574Z,28.70
2017-09-23T13:18:09.149Z,29.83
2017-09-23T13:20:36.042Z,28.97
2017-09-23T13:23:02.887Z,32.03
2017-09-23T13:25:29.757Z,34.50
2017-09-23T13:27:56.678Z,34.63
2017-09-23T13:30:23.626Z,36.30
2017-09-23T13:32:51.246Z,36.20
2017-09-23T13:35:18.146Z,36.87
2017-09-23T13:37:49.223Z,35.60
2017-09-23T13:52:30.732Z,36.53
2017-09-23T13:54:58.027Z,36.30
2017-09-23T13:57:26.035Z,34.63
2017-09-23T14:06:38.279Z,36.53
2017-09-23T14:14:50.909Z,36.53
2017-09-23T14:17:18.210Z,35.97
2017-09-23T14:19:45.646Z,37.00
2017-09-23T14:22:12.523Z,34.20
2017-09-23T14:24:39.398Z,37.50
2017-09-23T14:27:06.352Z,36.80
2017-09-23T14:29:33.213Z,36.40
2017-09-23T14:32:00.068Z,35.13
2017-09-23T14:34:26.955Z,38.10
2017-09-23T14:36:54.279Z,33.67
2017-09-23T14:39:21.253Z,34.43
2017-09-23T14:41:48.216Z,37.90
2017-09-23T14:44:15.153Z,35.63
2017-09-23T14:46:42.758Z,37.30
2017-09-23T14:49:09.604Z,34.43
2017-09-23T14:51:37.185Z,34.07
2017-09-23T14:54:04.060Z,34.80
2017-09-23T14:56:30.883Z,33.23
2017-09-23T14:58:57.776Z,34.87
2017-09-23T15:01:24.644Z,35.60
2017-09-23T15:03:51.481Z,35.20
2017-09-23T15:06:20.199Z,34.33
2017-09-23T15:08:47.788Z,35.53
2017-09-23T15:11:14.698Z,36.10
2017-09-23T15:13:41.868Z,34.33
2017-09-23T15:16:08.720Z,33.13
2017-09-23T15:18:35.596Z,33.73
2017-09-23T15:21:02.441Z,39.20
2017-09-23T15:23:29.298Z,37.50
2017-09-23T15:25:56.173Z,36.80
2017-09-23T15:28:23.116Z,37.23
2017-09-23T15:30:50.167Z,35.60
2017-09-23T15:33:16.999Z,36.27
2017-09-23T15:35:44.599Z,36.17
2017-09-23T15:38:12.022Z,37.73
2017-09-23T15:40:38.893Z,35.03
2017-09-23T15:43:05.724Z,35.90
2017-09-23T15:45:32.710Z,34.77
2017-09-23T15:47:59.601Z,38.37
2017-09-23T15:50:27.152Z,35.87
2017-09-23T15:52:53.978Z,37.20
2017-09-23T15:55:20.839Z,35.30
2017-09-23T15:57:49.200Z,33.70
2017-09-23T16:00:18.470Z,36.07
2017-09-23T16:02:45.432Z,34.03
2017-09-23T16:05:13.444Z,32.17
2017-09-23T16:07:40.364Z,33.27
2017-09-23T16:10:07.948Z,31.53
2017-09-23T16:12:34.895Z,31.60
2017-09-23T16:15:01.709Z,32.10
2017-09-23T16:17:28.824Z,32.73
2017-09-23T16:19:55.695Z,29.73
2017-09-23T16:22:23.084Z,29.60
2017-09-23T16:24:49.957Z,31.73
2017-09-23T16:27:16.837Z,34.73
2017-09-23T16:29:43.687Z,31.60
2017-09-23T16:32:10.615Z,32.03
2017-09-23T16:34:37.449Z,34.53
2017-09-23T16:37:05.040Z,33.00
2017-09-23T16:39:31.889Z,32.60
2017-09-23T16:41:59.449Z,32.30
2017-09-23T16:44:26.481Z,34.33
2017-09-23T16:46:53.300Z,34.33
2017-09-23T16:49:20.707Z,33.50
2017-09-23T16:51:47.719Z,33.83
2017-09-23T16:54:14.556Z,32.83
2017-09-23T16:56:41.402Z,34.27
2017-09-23T16:59:08.225Z,33.77
2017-09-23T17:01:35.058Z,33.07
2017-09-23T17:04:08.061Z,33.87
2017-09-23T17:06:35.187Z,32.43
2017-09-23T17:09:02.309Z,35.03
2017-09-23T17:11:30.417Z,32.43
2017-09-23T17:13:57.269Z,34.70
2017-09-23T17:16:24.098Z,34.47
2017-09-23T17:18:50.927Z,35.07
2017-09-23T17:21:17.768Z,36.30
2017-09-23T17:23:44.575Z,34.77
2017-09-23T17:26:17.336Z,33.60
2017-09-23T17:28:44.129Z,35.50
2017-09-23T17:31:10.961Z,36.10
2017-09-23T17:33:37.820Z,37.60
2017-09-23T17:36:04.700Z,53.07
2017-09-23T17:38:31.546Z,37.87
2017-09-23T17:40:58.424Z,36.63
2017-09-23T17:43:25.281Z,35.47
2017-09-23T17:45:52.119Z,35.47
2017-09-23T17:48:18.939Z,34.93
2017-09-23T17:50:45.755Z,35.30
2017-09-23T17:53:12.585Z,35.57
2017-09-23T17:55:39.814Z,35.10
2017-09-23T17:58:06.714Z,33.23
2017-09-23T18:00:33.530Z,33.50
2017-09-23T18:03:00.375Z,32.77
2017-09-23T18:05:27.264Z,32.57
2017-09-23T18:07:54.269Z,40.17
2017-09-23T18:10:21.094Z,42.00
2017-09-23T18:12:47.935Z,39.03
2017-09-23T18:15:14.816Z,36.90
2017-09-23T18:17:41.636Z,37.13
2017-09-23T18:20:08.443Z,34.87
2017-09-23T18:25:06.782Z,38.70
2017-09-23T18:27:34.335Z,39.00
2017-09-23T18:30:02.239Z,37.80
2017-09-23T18:32:29.810Z,36.17
2017-09-23T18:34:56.653Z,36.97
2017-09-23T18:37:23.459Z,36.90
2017-09-23T18:39:51.297Z,41.97
2017-09-23T18:42:18.129Z,41.20
2017-09-23T18:44:45.861Z,42.50
2017-09-23T18:50:23.544Z,39.67
2017-09-23T18:52:50.653Z,41.27
2017-09-23T18:55:18.213Z,41.50
2017-09-23T18:57:46.642Z,40.83
2017-09-23T19:00:13.538Z,39.17
2017-09-23T19:02:46.577Z,41.00
2017-09-23T19:05:15.212Z,40.63
2017-09-23T19:07:44.069Z,41.77
2017-09-23T19:10:11.182Z,35.77
2017-09-23T19:12:44.061Z,38.47
2017-09-23T19:15:11.794Z,42.20
2017-09-23T19:17:39.066Z,38.73
2017-09-23T19:20:05.990Z,40.37
2017-09-23T19:22:35.072Z,38.30
2017-09-23T19:25:02.122Z,38.40
2017-09-23T19:27:29.392Z,38.00
2017-09-23T19:33:06.948Z,38.47
2017-09-23T19:38:44.028Z,38.80
2017-09-23T19:47:01.257Z,43.13
2017-09-23T19:49:28.263Z,40.47
2017-09-23T19:51:55.289Z,41.83
2017-09-23T19:54:23.264Z,39.97
2017-09-23T19:56:50.082Z,40.50
2017-09-23T19:59:17.228Z,42.40
2017-09-23T20:01:44.727Z,38.10
2017-09-23T20:04:19.207Z,38.70
2017-09-23T20:06:46.409Z,36.27
2017-09-23T20:09:13.406Z,37.87
2017-09-23T20:11:42.795Z,35.30
2017-09-23T20:14:09.623Z,34.70
2017-09-23T20:16:38.864Z,34.50
2017-09-23T20:19:05.805Z,34.93
2017-09-23T20:21:33.940Z,33.43
2017-09-23T20:24:00.838Z,35.33
2017-09-23T20:26:27.660Z,37.93
2017-09-23T20:28:54.495Z,36.40
2017-09-23T20:31:22.062Z,34.60
2017-09-23T20:33:48.859Z,31.37
2017-09-23T20:36:15.689Z,34.60
2017-09-23T20:38:42.498Z,35.00
2017-09-23T20:41:09.306Z,32.53
2017-09-23T20:43:36.172Z,32.30
2017-09-23T20:46:03.747Z,32.17
2017-09-23T20:48:31.287Z,33.00
2017-09-23T20:50:58.106Z,32.17
2017-09-23T20:53:24.932Z,36.60
2017-09-23T20:55:51.753Z,38.17
2017-09-23T20:58:18.608Z,37.67
2017-09-23T21:00:45.474Z,38.77
2017-09-23T21:03:12.354Z,36.30
2017-09-23T21:05:39.211Z,34.73
2017-09-23T21:08:06.267Z,34.20
2017-09-23T21:10:33.156Z,32.13
2017-09-23T21:12:59.994Z,32.03
2017-09-23T21:15:26.846Z,35.77
2017-09-23T21:17:54.406Z,35.23
2017-09-23T21:20:21.251Z,36.53
2017-09-23T21:22:48.823Z,35.63
2017-09-23T21:25:16.380Z,35.30
2017-09-23T21:27:43.252Z,33.67
2017-09-23T21:30:10.740Z,34.10
2017-09-23T21:32:37.573Z,31.40
2017-09-23T21:35:04.420Z,31.67
2017-09-23T21:37:31.256Z,33.40
2017-09-23T21:39:58.120Z,33.93
2017-09-23T21:42:24.986Z,31.40
2017-09-23T21:44:52.629Z,34.20
2017-09-23T21:47:19.468Z,34.50
2017-09-23T21:49:46.342Z,37.13
2017-09-23T21:52:13.274Z,33.43
2017-09-23T21:54:40.364Z,32.20
2017-09-23T21:57:07.217Z,39.30
2017-09-23T21:59:34.149Z,36.87
2017-09-23T22:02:01.015Z,35.47
2017-09-23T22:04:27.903Z,39.80
2017-09-23T22:06:54.790Z,38.50
2017-09-23T22:09:22.386Z,37.63
2017-09-23T22:11:49.249Z,40.43
2017-09-23T22:14:16.055Z,42.33
2017-09-23T22:16:42.936Z,43.40
2017-09-23T22:19:09.796Z,38.90
2017-09-23T22:21:36.641Z,39.60
2017-09-23T22:24:03.824Z,41.33
2017-09-23T22:26:32.234Z,38.67
2017-09-23T22:28:59.118Z,39.33
2017-09-23T22:31:25.938Z,38.47
2017-09-23T22:33:52.769Z,35.83
2017-09-23T22:36:19.586Z,32.97
2017-09-23T22:38:47.159Z,32.40
2017-09-23T22:41:14.720Z,30.63
2017-09-23T22:43:41.574Z,30.63
2017-09-23T22:46:08.447Z,29.73
2017-09-23T22:48:35.281Z,34.77
2017-09-23T22:51:02.119Z,28.87
2017-09-23T22:53:28.963Z,28.10
2017-09-23T22:55:55.773Z,29.60
2017-09-23T22:58:22.660Z,28.80
2017-09-23T23:00:50.283Z,31.87
2017-09-23T23:03:17.121Z,31.00
2017-09-23T23:05:43.963Z,28.37
2017-09-23T23:08:11.582Z,30.33
2017-09-23T23:10:38.399Z,32.07
2017-09-23T23:13:05.269Z,31.60
2017-09-23T23:15:32.868Z,33.90
2017-09-23T23:17:59.741Z,30.90
2017-09-23T23:20:26.704Z,29.00
2017-09-23T23:22:53.603Z,29.57
2017-09-23T23:25:20.445Z,33.80
2017-09-23T23:27:47.291Z,34.57
2017-09-23T23:30:14.158Z,38.17
2017-09-23T23:32:40.977Z,35.70
2017-09-23T23:35:07.870Z,36.37
2017-09-23T23:37:34.722Z,43.70
2017-09-23T23:40:01.854Z,43.00
2017-09-23T23:42:28.663Z,42.33
2017-09-23T23:44:55.473Z,43.67
2017-09-23T23:47:22.419Z,50.83
2017-09-23T23:49:49.229Z,48.50
2017-09-23T23:52:16.015Z,48.77
2017-09-23T23:54:42.878Z,49.97
2017-09-23T23:57:09.682Z,50.87
2017-09-23T23:59:36.521Z,46.60
